sensor_id;sensor_type;location;lat;lon;timestamp;pressure;altitude;pressure_sealevel;temperature;humidity
54870;BME280;40756;-37.950;145.008;2023-09-18T00:00:07;101270.37;;;17.57;46.46
54870;BME280;40756;-37.950;145.008;2023-09-18T00:02:37;101269.14;;;18.10;46.77
54870;BME280;40756;-37.950;145.008;2023-09-18T00:05:07;101272.41;;;17.37;48.81
54870;BME280;40756;-37.950;145.008;2023-09-18T00:07:37;101262.50;;;17.78;47.61
54870;BME280;40756;-37.950;145.008;2023-09-18T00:10:07;101251.45;;;18.19;47.33
54870;BME280;40756;-37.950;145.008;2023-09-18T00:12:37;101243.37;;;16.70;49.05
54870;BME280;40756;-37.950;145.008;2023-09-18T00:15:08;101223.57;;;17.03;49.79
54870;BME280;40756;-37.950;145.008;2023-09-18T00:17:37;101211.10;;;17.47;49.21
54870;BME280;40756;-37.950;145.008;2023-09-18T00:20:08;101208.51;;;18.38;47.65
54870;BME280;40756;-37.950;145.008;2023-09-18T00:22:37;101217.69;;;17.94;47.51
54870;BME280;40756;-37.950;145.008;2023-09-18T00:25:07;101223.23;;;18.26;47.20
54870;BME280;40756;-37.950;145.008;2023-09-18T00:27:36;101239.70;;;17.44;48.21
54870;BME280;40756;-37.950;145.008;2023-09-18T00:30:07;101225.21;;;18.58;46.39
54870;BME280;40756;-37.950;145.008;2023-09-18T00:32:36;101212.72;;;18.00;46.95
54870;BME280;40756;-37.950;145.008;2023-09-18T00:35:06;101206.55;;;18.01;47.22
54870;BME280;40756;-37.950;145.008;2023-09-18T00:37:35;101187.00;;;18.06;47.22
54870;BME280;40756;-37.950;145.008;2023-09-18T00:40:05;101181.18;;;17.82;47.09
54870;BME280;40756;-37.950;145.008;2023-09-18T00:42:35;101178.19;;;18.10;46.32
54870;BME280;40756;-37.950;145.008;2023-09-18T00:45:05;101182.57;;;18.03;46.46
54870;BME280;40756;-37.950;145.008;2023-09-18T00:47:35;101189.47;;;17.88;46.53
54870;BME280;40756;-37.950;145.008;2023-09-18T00:50:09;101200.43;;;18.40;46.33
54870;BME280;40756;-37.950;145.008;2023-09-18T00:52:42;101237.34;;;18.15;46.01
54870;BME280;40756;-37.950;145.008;2023-09-18T00:55:12;101261.00;;;17.91;46.24
54870;BME280;40756;-37.950;145.008;2023-09-18T00:57:42;101249.03;;;17.61;46.92
54870;BME280;40756;-37.950;145.008;2023-09-18T01:00:13;101236.15;;;16.90;47.92
54870;BME280;40756;-37.950;145.008;2023-09-18T01:02:43;101229.97;;;17.47;48.38
54870;BME280;40756;-37.950;145.008;2023-09-18T01:05:12;101238.29;;;17.72;46.72
54870;BME280;40756;-37.950;145.008;2023-09-18T01:07:42;101241.18;;;18.18;47.02
54870;BME280;40756;-37.950;145.008;2023-09-18T01:10:12;101227.75;;;18.19;46.03
54870;BME280;40756;-37.950;145.008;2023-09-18T01:12:47;101224.54;;;18.14;45.50
54870;BME280;40756;-37.950;145.008;2023-09-18T01:15:22;101224.42;;;17.85;45.54
54870;BME280;40756;-37.950;145.008;2023-09-18T01:17:52;101243.24;;;17.71;46.18
54870;BME280;40756;-37.950;145.008;2023-09-18T01:20:21;101262.61;;;18.44;45.55
54870;BME280;40756;-37.950;145.008;2023-09-18T01:22:50;101264.61;;;18.63;44.53
54870;BME280;40756;-37.950;145.008;2023-09-18T01:25:20;101245.88;;;17.55;46.56
54870;BME280;40756;-37.950;145.008;2023-09-18T01:27:49;101253.84;;;17.26;47.28
54870;BME280;40756;-37.950;145.008;2023-09-18T01:30:19;101262.72;;;18.08;46.37
54870;BME280;40756;-37.950;145.008;2023-09-18T01:32:49;101262.75;;;17.52;47.06
54870;BME280;40756;-37.950;145.008;2023-09-18T01:35:19;101259.47;;;17.39;47.76
54870;BME280;40756;-37.950;145.008;2023-09-18T01:37:48;101265.62;;;18.92;45.09
54870;BME280;40756;-37.950;145.008;2023-09-18T01:40:19;101246.47;;;17.54;46.22
54870;BME280;40756;-37.950;145.008;2023-09-18T01:42:49;101221.31;;;17.15;46.49
54870;BME280;40756;-37.950;145.008;2023-09-18T01:45:18;101223.69;;;18.56;44.91
54870;BME280;40756;-37.950;145.008;2023-09-18T01:47:48;101248.08;;;17.38;45.98
54870;BME280;40756;-37.950;145.008;2023-09-18T01:50:17;101227.30;;;18.18;44.92
54870;BME280;40756;-37.950;145.008;2023-09-18T01:52:47;101210.77;;;18.73;44.41
54870;BME280;40756;-37.950;145.008;2023-09-18T01:55:16;101198.36;;;18.58;44.04
54870;BME280;40756;-37.950;145.008;2023-09-18T01:57:46;101190.15;;;19.40;42.83
54870;BME280;40756;-37.950;145.008;2023-09-18T02:00:16;101201.90;;;19.27;42.64
54870;BME280;40756;-37.950;145.008;2023-09-18T02:02:46;101184.48;;;18.43;44.01
54870;BME280;40756;-37.950;145.008;2023-09-18T02:05:15;101207.94;;;18.21;43.87
54870;BME280;40756;-37.950;145.008;2023-09-18T02:07:45;101216.03;;;18.38;44.17
54870;BME280;40756;-37.950;145.008;2023-09-18T02:10:15;101188.55;;;18.31;44.02
54870;BME280;40756;-37.950;145.008;2023-09-18T02:12:44;101167.56;;;16.83;46.18
54870;BME280;40756;-37.950;145.008;2023-09-18T02:15:14;101120.35;;;18.11;45.16
54870;BME280;40756;-37.950;145.008;2023-09-18T02:17:43;101109.68;;;17.89;45.27
54870;BME280;40756;-37.950;145.008;2023-09-18T02:20:13;101130.56;;;18.75;44.05
54870;BME280;40756;-37.950;145.008;2023-09-18T02:22:42;101161.93;;;18.79;43.86
54870;BME280;40756;-37.950;145.008;2023-09-18T02:25:12;101175.47;;;18.49;44.14
54870;BME280;40756;-37.950;145.008;2023-09-18T02:27:41;101179.57;;;19.04;43.45
54870;BME280;40756;-37.950;145.008;2023-09-18T02:30:12;101158.72;;;18.71;43.44
54870;BME280;40756;-37.950;145.008;2023-09-18T02:32:41;101167.65;;;18.96;42.69
54870;BME280;40756;-37.950;145.008;2023-09-18T02:35:11;101178.29;;;18.58;43.40
54870;BME280;40756;-37.950;145.008;2023-09-18T02:37:40;101220.44;;;18.67;43.40
54870;BME280;40756;-37.950;145.008;2023-09-18T02:40:10;101235.50;;;18.65;43.56
54870;BME280;40756;-37.950;145.008;2023-09-18T02:42:40;101223.41;;;17.98;44.22
54870;BME280;40756;-37.950;145.008;2023-09-18T02:45:10;101206.86;;;18.85;43.73
54870;BME280;40756;-37.950;145.008;2023-09-18T02:47:40;101181.39;;;18.25;44.26
54870;BME280;40756;-37.950;145.008;2023-09-18T02:50:09;101174.88;;;19.67;42.95
54870;BME280;40756;-37.950;145.008;2023-09-18T02:52:39;101188.29;;;18.87;43.56
54870;BME280;40756;-37.950;145.008;2023-09-18T02:55:09;101207.09;;;18.15;44.06
54870;BME280;40756;-37.950;145.008;2023-09-18T02:57:38;101215.14;;;18.52;44.43
54870;BME280;40756;-37.950;145.008;2023-09-18T03:00:09;101215.12;;;17.67;46.34
54870;BME280;40756;-37.950;145.008;2023-09-18T03:02:38;101235.98;;;18.51;45.25
54870;BME280;40756;-37.950;145.008;2023-09-18T03:05:08;101270.88;;;17.42;46.61
54870;BME280;40756;-37.950;145.008;2023-09-18T03:07:38;101272.18;;;17.64;47.00
54870;BME280;40756;-37.950;145.008;2023-09-18T03:10:09;101284.53;;;16.97;48.50
54870;BME280;40756;-37.950;145.008;2023-09-18T03:12:39;101251.67;;;17.53;48.39
54870;BME280;40756;-37.950;145.008;2023-09-18T03:15:09;101234.53;;;17.79;48.41
54870;BME280;40756;-37.950;145.008;2023-09-18T03:17:38;101222.44;;;16.97;50.43
54870;BME280;40756;-37.950;145.008;2023-09-18T03:20:09;101200.34;;;17.82;49.21
54870;BME280;40756;-37.950;145.008;2023-09-18T03:22:38;101187.45;;;17.76;48.11
54870;BME280;40756;-37.950;145.008;2023-09-18T03:25:09;101182.35;;;17.76;47.99
54870;BME280;40756;-37.950;145.008;2023-09-18T03:27:38;101175.10;;;19.20;45.47
54870;BME280;40756;-37.950;145.008;2023-09-18T03:30:08;101198.04;;;19.00;45.35
54870;BME280;40756;-37.950;145.008;2023-09-18T03:32:38;101215.43;;;19.90;43.85
54870;BME280;40756;-37.950;145.008;2023-09-18T03:35:08;101224.00;;;18.51;46.58
54870;BME280;40756;-37.950;145.008;2023-09-18T03:37:37;101237.86;;;17.41;48.51
54870;BME280;40756;-37.950;145.008;2023-09-18T03:40:08;101258.60;;;16.71;51.51
54870;BME280;40756;-37.950;145.008;2023-09-18T03:42:38;101250.76;;;17.01;52.81
54870;BME280;40756;-37.950;145.008;2023-09-18T03:45:09;101243.36;;;16.87;53.16
54870;BME280;40756;-37.950;145.008;2023-09-18T03:47:40;101226.04;;;16.49;55.04
54870;BME280;40756;-37.950;145.008;2023-09-18T03:50:10;101200.67;;;17.62;52.02
54870;BME280;40756;-37.950;145.008;2023-09-18T03:52:41;101203.09;;;17.58;51.57
54870;BME280;40756;-37.950;145.008;2023-09-18T03:55:10;101191.65;;;18.75;48.19
54870;BME280;40756;-37.950;145.008;2023-09-18T03:57:41;101174.07;;;18.37;49.50
54870;BME280;40756;-37.950;145.008;2023-09-18T04:00:12;101185.17;;;18.74;46.40
54870;BME280;40756;-37.950;145.008;2023-09-18T04:02:42;101185.72;;;19.25;44.75
54870;BME280;40756;-37.950;145.008;2023-09-18T04:05:11;101170.54;;;19.92;44.08
54870;BME280;40756;-37.950;145.008;2023-09-18T04:07:42;101157.80;;;20.00;42.89
54870;BME280;40756;-37.950;145.008;2023-09-18T04:10:12;101158.91;;;20.63;42.52
54870;BME280;40756;-37.950;145.008;2023-09-18T04:12:41;101153.86;;;20.60;41.91
54870;BME280;40756;-37.950;145.008;2023-09-18T04:15:11;101162.03;;;19.72;43.18
54870;BME280;40756;-37.950;145.008;2023-09-18T04:17:40;101163.71;;;19.98;42.15
54870;BME280;40756;-37.950;145.008;2023-09-18T04:20:10;101171.06;;;20.82;41.16
54870;BME280;40756;-37.950;145.008;2023-09-18T04:22:43;101174.05;;;19.08;42.46
54870;BME280;40756;-37.950;145.008;2023-09-18T04:25:14;101187.00;;;18.62;44.03
54870;BME280;40756;-37.950;145.008;2023-09-18T04:27:43;101210.04;;;18.76;43.92
54870;BME280;40756;-37.950;145.008;2023-09-18T04:30:12;101209.32;;;17.49;47.86
54870;BME280;40756;-37.950;145.008;2023-09-18T04:32:42;101206.75;;;17.60;49.03
54870;BME280;40756;-37.950;145.008;2023-09-18T04:35:11;101223.48;;;17.00;50.96
54870;BME280;40756;-37.950;145.008;2023-09-18T04:37:41;101216.24;;;16.33;52.31
54870;BME280;40756;-37.950;145.008;2023-09-18T04:40:11;101225.20;;;17.51;51.82
54870;BME280;40756;-37.950;145.008;2023-09-18T04:42:40;101237.98;;;17.96;50.22
54870;BME280;40756;-37.950;145.008;2023-09-18T04:45:10;101244.88;;;18.37;49.87
54870;BME280;40756;-37.950;145.008;2023-09-18T04:47:39;101237.01;;;17.52;50.27
54870;BME280;40756;-37.950;145.008;2023-09-18T04:50:09;101236.18;;;18.33;48.93
54870;BME280;40756;-37.950;145.008;2023-09-18T04:52:39;101236.84;;;17.17;50.52
54870;BME280;40756;-37.950;145.008;2023-09-18T04:55:09;101217.95;;;17.35;48.83
54870;BME280;40756;-37.950;145.008;2023-09-18T04:57:39;101200.97;;;17.34;48.94
54870;BME280;40756;-37.950;145.008;2023-09-18T05:00:09;101179.32;;;17.63;47.92
54870;BME280;40756;-37.950;145.008;2023-09-18T05:02:39;101172.46;;;18.28;46.08
54870;BME280;40756;-37.950;145.008;2023-09-18T05:05:09;101158.87;;;16.61;48.17
54870;BME280;40756;-37.950;145.008;2023-09-18T05:07:39;101131.67;;;16.80;49.49
54870;BME280;40756;-37.950;145.008;2023-09-18T05:10:09;101109.72;;;17.18;48.48
54870;BME280;40756;-37.950;145.008;2023-09-18T05:12:40;101112.51;;;17.32;48.13
54870;BME280;40756;-37.950;145.008;2023-09-18T05:15:11;101137.29;;;16.55;48.35
54870;BME280;40756;-37.950;145.008;2023-09-18T05:17:43;101153.53;;;18.29;45.60
54870;BME280;40756;-37.950;145.008;2023-09-18T05:20:15;101158.44;;;17.88;45.87
54870;BME280;40756;-37.950;145.008;2023-09-18T05:22:46;101190.74;;;18.53;45.56
54870;BME280;40756;-37.950;145.008;2023-09-18T05:25:15;101222.60;;;17.95;45.65
54870;BME280;40756;-37.950;145.008;2023-09-18T05:27:45;101214.59;;;17.89;46.03
54870;BME280;40756;-37.950;145.008;2023-09-18T05:30:15;101188.60;;;18.12;44.66
54870;BME280;40756;-37.950;145.008;2023-09-18T05:32:45;101159.44;;;18.78;44.49
54870;BME280;40756;-37.950;145.008;2023-09-18T05:35:14;101151.34;;;18.76;44.65
54870;BME280;40756;-37.950;145.008;2023-09-18T05:37:43;101161.47;;;18.30;44.93
54870;BME280;40756;-37.950;145.008;2023-09-18T05:40:13;101166.19;;;18.86;43.10
54870;BME280;40756;-37.950;145.008;2023-09-18T05:42:44;101133.74;;;18.60;43.33
54870;BME280;40756;-37.950;145.008;2023-09-18T05:45:15;101112.55;;;18.39;44.39
54870;BME280;40756;-37.950;145.008;2023-09-18T05:47:44;101102.61;;;18.45;44.42
54870;BME280;40756;-37.950;145.008;2023-09-18T05:50:14;101113.97;;;18.90;42.51
54870;BME280;40756;-37.950;145.008;2023-09-18T05:52:45;101146.40;;;19.10;42.11
54870;BME280;40756;-37.950;145.008;2023-09-18T05:55:15;101167.31;;;19.15;41.60
54870;BME280;40756;-37.950;145.008;2023-09-18T05:57:45;101173.50;;;18.90;41.67
54870;BME280;40756;-37.950;145.008;2023-09-18T06:00:14;101145.32;;;18.68;43.18
54870;BME280;40756;-37.950;145.008;2023-09-18T06:02:44;101159.87;;;17.70;45.19
54870;BME280;40756;-37.950;145.008;2023-09-18T06:05:14;101224.48;;;16.51;47.96
54870;BME280;40756;-37.950;145.008;2023-09-18T06:07:43;101206.90;;;18.30;46.67
54870;BME280;40756;-37.950;145.008;2023-09-18T06:10:13;101184.01;;;17.58;49.14
54870;BME280;40756;-37.950;145.008;2023-09-18T06:12:43;101169.68;;;17.30;49.57
54870;BME280;40756;-37.950;145.008;2023-09-18T06:15:13;101145.64;;;18.13;48.60
54870;BME280;40756;-37.950;145.008;2023-09-18T06:17:44;101134.79;;;18.87;47.83
54870;BME280;40756;-37.950;145.008;2023-09-18T06:20:13;101142.00;;;18.55;47.12
54870;BME280;40756;-37.950;145.008;2023-09-18T06:22:42;101172.69;;;17.82;47.84
54870;BME280;40756;-37.950;145.008;2023-09-18T06:25:12;101192.47;;;18.22;46.76
54870;BME280;40756;-37.950;145.008;2023-09-18T06:27:42;101205.65;;;17.67;48.36
54870;BME280;40756;-37.950;145.008;2023-09-18T06:30:11;101216.20;;;18.18;48.30
54870;BME280;40756;-37.950;145.008;2023-09-18T06:32:41;101239.59;;;17.43;50.70
54870;BME280;40756;-37.950;145.008;2023-09-18T06:35:10;101229.64;;;17.96;49.51
54870;BME280;40756;-37.950;145.008;2023-09-18T06:37:40;101211.45;;;17.87;51.01
54870;BME280;40756;-37.950;145.008;2023-09-18T06:40:10;101189.07;;;16.65;52.44
54870;BME280;40756;-37.950;145.008;2023-09-18T06:42:40;101191.38;;;17.64;50.37
54870;BME280;40756;-37.950;145.008;2023-09-18T06:45:09;101210.38;;;17.94;48.66
54870;BME280;40756;-37.950;145.008;2023-09-18T06:47:39;101216.32;;;18.29;48.50
54870;BME280;40756;-37.950;145.008;2023-09-18T06:50:09;101211.56;;;18.10;48.20
54870;BME280;40756;-37.950;145.008;2023-09-18T06:52:39;101219.93;;;17.18;49.27
54870;BME280;40756;-37.950;145.008;2023-09-18T06:55:08;101211.17;;;17.54;49.27
54870;BME280;40756;-37.950;145.008;2023-09-18T06:57:37;101193.57;;;18.36;47.31
54870;BME280;40756;-37.950;145.008;2023-09-18T07:00:08;101165.23;;;17.68;49.32
54870;BME280;40756;-37.950;145.008;2023-09-18T07:02:37;101149.59;;;18.01;48.48
54870;BME280;40756;-37.950;145.008;2023-09-18T07:05:07;101158.31;;;17.52;48.58
54870;BME280;40756;-37.950;145.008;2023-09-18T07:07:36;101168.60;;;18.48;47.53
54870;BME280;40756;-37.950;145.008;2023-09-18T07:10:06;101181.44;;;18.34;47.02
54870;BME280;40756;-37.950;145.008;2023-09-18T07:12:36;101176.67;;;16.68;50.06
54870;BME280;40756;-37.950;145.008;2023-09-18T07:15:08;101167.41;;;17.65;48.79
54870;BME280;40756;-37.950;145.008;2023-09-18T07:17:37;101167.63;;;16.74;51.01
54870;BME280;40756;-37.950;145.008;2023-09-18T07:20:08;101164.74;;;16.83;50.81
54870;BME280;40756;-37.950;145.008;2023-09-18T07:22:37;101167.62;;;17.36;49.78
54870;BME280;40756;-37.950;145.008;2023-09-18T07:25:07;101165.23;;;17.18;49.42
54870;BME280;40756;-37.950;145.008;2023-09-18T07:27:37;101166.09;;;17.64;49.01
54870;BME280;40756;-37.950;145.008;2023-09-18T07:30:07;101166.60;;;17.44;50.72
54870;BME280;40756;-37.950;145.008;2023-09-18T07:32:38;101171.83;;;17.49;49.59
54870;BME280;40756;-37.950;145.008;2023-09-18T07:35:09;101173.59;;;17.42;50.42
54870;BME280;40756;-37.950;145.008;2023-09-18T07:37:39;101169.17;;;17.96;50.19
54870;BME280;40756;-37.950;145.008;2023-09-18T07:40:09;101173.30;;;17.58;50.40
54870;BME280;40756;-37.950;145.008;2023-09-18T07:42:39;101154.37;;;16.37;52.58
54870;BME280;40756;-37.950;145.008;2023-09-18T07:45:09;101138.74;;;16.86;52.18
54870;BME280;40756;-37.950;145.008;2023-09-18T07:47:38;101120.22;;;16.00;53.82
54870;BME280;40756;-37.950;145.008;2023-09-18T07:50:08;101115.57;;;17.09;52.26
54870;BME280;40756;-37.950;145.008;2023-09-18T07:52:38;101147.44;;;17.49;50.49
54870;BME280;40756;-37.950;145.008;2023-09-18T07:55:08;101196.15;;;17.78;50.00
54870;BME280;40756;-37.950;145.008;2023-09-18T07:57:38;101225.14;;;17.62;50.00
54870;BME280;40756;-37.950;145.008;2023-09-18T08:00:08;101207.91;;;17.15;50.89
54870;BME280;40756;-37.950;145.008;2023-09-18T08:02:37;101192.80;;;16.90;51.20
54870;BME280;40756;-37.950;145.008;2023-09-18T08:05:07;101177.78;;;17.18;50.69
54870;BME280;40756;-37.950;145.008;2023-09-18T08:07:37;101169.95;;;17.58;50.20
54870;BME280;40756;-37.950;145.008;2023-09-18T08:10:07;101186.88;;;17.87;49.16
54870;BME280;40756;-37.950;145.008;2023-09-18T08:12:37;101189.76;;;17.85;49.14
54870;BME280;40756;-37.950;145.008;2023-09-18T08:15:08;101174.92;;;17.57;49.41
54870;BME280;40756;-37.950;145.008;2023-09-18T08:17:38;101182.51;;;17.52;50.19
54870;BME280;40756;-37.950;145.008;2023-09-18T08:20:08;101208.48;;;17.69;49.93
54870;BME280;40756;-37.950;145.008;2023-09-18T08:22:38;101206.31;;;17.85;49.80
54870;BME280;40756;-37.950;145.008;2023-09-18T08:25:08;101202.77;;;16.53;52.27
54870;BME280;40756;-37.950;145.008;2023-09-18T08:27:39;101201.88;;;17.17;50.95
54870;BME280;40756;-37.950;145.008;2023-09-18T08:30:10;101167.23;;;17.52;50.91
54870;BME280;40756;-37.950;145.008;2023-09-18T08:32:40;101176.10;;;17.59;50.74
54870;BME280;40756;-37.950;145.008;2023-09-18T08:35:10;101198.50;;;17.60;50.70
54870;BME280;40756;-37.950;145.008;2023-09-18T08:37:40;101194.01;;;17.09;51.49
54870;BME280;40756;-37.950;145.008;2023-09-18T08:40:11;101201.00;;;17.50;51.04
54870;BME280;40756;-37.950;145.008;2023-09-18T08:42:45;101208.69;;;17.56;50.90
54870;BME280;40756;-37.950;145.008;2023-09-18T08:45:19;101197.72;;;17.50;51.08
54870;BME280;40756;-37.950;145.008;2023-09-18T08:47:52;101173.33;;;17.03;51.74
54870;BME280;40756;-37.950;145.008;2023-09-18T08:50:23;101125.30;;;17.14;51.78
54870;BME280;40756;-37.950;145.008;2023-09-18T08:52:54;101108.41;;;17.12;52.07
54870;BME280;40756;-37.950;145.008;2023-09-18T08:55:25;101141.60;;;17.42;51.54
54870;BME280;40756;-37.950;145.008;2023-09-18T08:57:56;101154.05;;;17.25;50.51
54870;BME280;40756;-37.950;145.008;2023-09-18T09:00:27;101158.36;;;17.84;49.32
54870;BME280;40756;-37.950;145.008;2023-09-18T09:02:56;101148.65;;;17.96;49.29
54870;BME280;40756;-37.950;145.008;2023-09-18T09:05:25;101144.08;;;17.71;49.07
54870;BME280;40756;-37.950;145.008;2023-09-18T09:07:54;101140.40;;;17.18;49.82
54870;BME280;40756;-37.950;145.008;2023-09-18T09:10:24;101145.78;;;17.43;49.40
54870;BME280;40756;-37.950;145.008;2023-09-18T09:12:56;101163.18;;;17.53;49.11
54870;BME280;40756;-37.950;145.008;2023-09-18T09:15:29;101159.43;;;17.51;49.72
54870;BME280;40756;-37.950;145.008;2023-09-18T09:18:06;101159.75;;;17.62;50.13
54870;BME280;40756;-37.950;145.008;2023-09-18T09:20:36;101160.73;;;17.19;50.55
54870;BME280;40756;-37.950;145.008;2023-09-18T09:23:08;101169.00;;;17.19;50.92
54870;BME280;40756;-37.950;145.008;2023-09-18T09:25:37;101192.88;;;17.49;50.71
54870;BME280;40756;-37.950;145.008;2023-09-18T09:28:08;101194.21;;;17.38;50.48
54870;BME280;40756;-37.950;145.008;2023-09-18T09:30:37;101191.75;;;17.36;51.08
54870;BME280;40756;-37.950;145.008;2023-09-18T09:33:09;101187.42;;;17.16;51.41
54870;BME280;40756;-37.950;145.008;2023-09-18T09:35:42;101178.62;;;16.99;51.97
54870;BME280;40756;-37.950;145.008;2023-09-18T09:38:12;101168.00;;;16.49;53.18
54870;BME280;40756;-37.950;145.008;2023-09-18T09:40:43;101194.58;;;17.16;51.81
54870;BME280;40756;-37.950;145.008;2023-09-18T09:43:13;101189.97;;;17.19;51.57
54870;BME280;40756;-37.950;145.008;2023-09-18T09:45:44;101164.21;;;16.95;52.26
54870;BME280;40756;-37.950;145.008;2023-09-18T09:48:14;101171.54;;;17.09;51.81
54870;BME280;40756;-37.950;145.008;2023-09-18T09:50:48;101179.24;;;16.54;53.15
54870;BME280;40756;-37.950;145.008;2023-09-18T09:53:17;101160.86;;;16.85;52.76
54870;BME280;40756;-37.950;145.008;2023-09-18T09:55:55;101169.19;;;16.94;52.27
54870;BME280;40756;-37.950;145.008;2023-09-18T09:58:27;101192.50;;;16.65;52.98
54870;BME280;40756;-37.950;145.008;2023-09-18T10:00:58;101196.34;;;17.08;52.08
54870;BME280;40756;-37.950;145.008;2023-09-18T10:03:34;101177.10;;;16.43;53.43
54870;BME280;40756;-37.950;145.008;2023-09-18T10:06:06;101162.12;;;16.84;53.10
54870;BME280;40756;-37.950;145.008;2023-09-18T10:08:38;101151.09;;;16.48;53.14
54870;BME280;40756;-37.950;145.008;2023-09-18T10:11:10;101139.25;;;16.10;54.18
54870;BME280;40756;-37.950;145.008;2023-09-18T10:13:46;101136.00;;;16.38;53.62
54870;BME280;40756;-37.950;145.008;2023-09-18T10:16:18;101092.74;;;16.51;54.38
54870;BME280;40756;-37.950;145.008;2023-09-18T10:18:59;101084.71;;;16.76;53.29
54870;BME280;40756;-37.950;145.008;2023-09-18T10:21:38;101082.24;;;16.34;53.61
54870;BME280;40756;-37.950;145.008;2023-09-18T10:24:17;101102.67;;;16.39;53.69
54870;BME280;40756;-37.950;145.008;2023-09-18T10:26:54;101123.15;;;16.70;53.02
54870;BME280;40756;-37.950;145.008;2023-09-18T10:29:25;101129.58;;;16.80;52.71
54870;BME280;40756;-37.950;145.008;2023-09-18T10:31:55;101124.87;;;16.51;53.24
54870;BME280;40756;-37.950;145.008;2023-09-18T10:34:25;101099.97;;;16.43;54.22
54870;BME280;40756;-37.950;145.008;2023-09-18T10:36:55;101098.46;;;16.36;53.76
54870;BME280;40756;-37.950;145.008;2023-09-18T10:39:26;101147.87;;;16.41;53.65
54870;BME280;40756;-37.950;145.008;2023-09-18T10:41:57;101166.81;;;16.99;52.83
54870;BME280;40756;-37.950;145.008;2023-09-18T10:44:30;101178.01;;;16.66;53.03
54870;BME280;40756;-37.950;145.008;2023-09-18T10:47:03;101156.42;;;16.82;53.24
54870;BME280;40756;-37.950;145.008;2023-09-18T10:49:34;101121.92;;;16.73;52.89
54870;BME280;40756;-37.950;145.008;2023-09-18T10:52:04;101099.67;;;16.88;52.54
54870;BME280;40756;-37.950;145.008;2023-09-18T10:54:34;101076.57;;;16.90;53.04
54870;BME280;40756;-37.950;145.008;2023-09-18T10:57:04;101090.72;;;16.69;53.00
54870;BME280;40756;-37.950;145.008;2023-09-18T10:59:33;101115.17;;;16.63;53.10
54870;BME280;40756;-37.950;145.008;2023-09-18T11:02:06;101114.89;;;16.85;53.22
54870;BME280;40756;-37.950;145.008;2023-09-18T11:04:37;101077.37;;;16.50;53.44
54870;BME280;40756;-37.950;145.008;2023-09-18T11:07:06;101077.81;;;16.54;53.23
54870;BME280;40756;-37.950;145.008;2023-09-18T11:09:44;101104.71;;;17.04;52.71
54870;BME280;40756;-37.950;145.008;2023-09-18T11:12:16;101107.80;;;16.81;52.69
54870;BME280;40756;-37.950;145.008;2023-09-18T11:14:48;101097.43;;;16.86;52.47
54870;BME280;40756;-37.950;145.008;2023-09-18T11:17:35;101101.83;;;16.77;52.45
54870;BME280;40756;-37.950;145.008;2023-09-18T11:20:10;101125.27;;;16.99;52.01
54870;BME280;40756;-37.950;145.008;2023-09-18T11:22:49;101125.42;;;16.48;52.67
54870;BME280;40756;-37.950;145.008;2023-09-18T11:25:51;101160.81;;;16.88;52.32
54870;BME280;40756;-37.950;145.008;2023-09-18T11:28:26;101101.58;;;16.19;53.22
54870;BME280;40756;-37.950;145.008;2023-09-18T11:30:57;101051.34;;;16.50;53.07
54870;BME280;40756;-37.950;145.008;2023-09-18T11:33:36;101029.43;;;16.66;53.68
54870;BME280;40756;-37.950;145.008;2023-09-18T11:36:07;101008.53;;;16.36;53.67
54870;BME280;40756;-37.950;145.008;2023-09-18T11:38:53;101005.10;;;16.20;54.14
54870;BME280;40756;-37.950;145.008;2023-09-18T11:41:25;101037.32;;;16.43;53.50
54870;BME280;40756;-37.950;145.008;2023-09-18T11:44:32;101113.27;;;16.60;53.71
54870;BME280;40756;-37.950;145.008;2023-09-18T11:47:02;101030.13;;;16.45;54.08
54870;BME280;40756;-37.950;145.008;2023-09-18T11:49:33;101053.55;;;16.55;54.04
54870;BME280;40756;-37.950;145.008;2023-09-18T11:52:02;101092.69;;;16.25;53.74
54870;BME280;40756;-37.950;145.008;2023-09-18T11:54:33;101079.54;;;16.82;53.18
54870;BME280;40756;-37.950;145.008;2023-09-18T11:57:05;101092.91;;;16.89;53.16
54870;BME280;40756;-37.950;145.008;2023-09-18T11:59:38;101088.14;;;16.54;53.32
54870;BME280;40756;-37.950;145.008;2023-09-18T12:02:08;101016.75;;;16.61;53.83
54870;BME280;40756;-37.950;145.008;2023-09-18T12:04:38;100963.86;;;16.21;54.59
54870;BME280;40756;-37.950;145.008;2023-09-18T12:07:09;100985.13;;;16.65;53.78
54870;BME280;40756;-37.950;145.008;2023-09-18T12:09:38;101042.63;;;16.79;53.54
54870;BME280;40756;-37.950;145.008;2023-09-18T12:12:09;101057.35;;;16.61;53.40
54870;BME280;40756;-37.950;145.008;2023-09-18T12:14:39;101048.91;;;16.55;53.58
54870;BME280;40756;-37.950;145.008;2023-09-18T12:17:12;101057.40;;;16.74;53.16
54870;BME280;40756;-37.950;145.008;2023-09-18T12:19:52;101036.30;;;17.04;53.03
54870;BME280;40756;-37.950;145.008;2023-09-18T12:22:27;101012.69;;;16.70;53.41
54870;BME280;40756;-37.950;145.008;2023-09-18T12:25:10;100952.51;;;16.58;53.75
54870;BME280;40756;-37.950;145.008;2023-09-18T12:27:40;100907.12;;;16.39;54.11
54870;BME280;40756;-37.950;145.008;2023-09-18T12:30:10;100938.71;;;16.45;54.08
54870;BME280;40756;-37.950;145.008;2023-09-18T12:32:42;100917.17;;;16.67;53.42
54870;BME280;40756;-37.950;145.008;2023-09-18T12:35:14;100930.42;;;16.81;53.26
54870;BME280;40756;-37.950;145.008;2023-09-18T12:37:44;100986.90;;;16.65;53.56